createdAt,value
2017-05-12T00:00:12.256Z,8.75
2017-05-12T00:02:40.729Z,8.50
2017-05-12T00:05:09.203Z,8.03
2017-05-12T00:07:37.180Z,8.40
2017-05-12T00:10:05.652Z,9.40
2017-05-12T00:12:33.397Z,9.30
2017-05-12T00:15:01.954Z,9.77
2017-05-12T00:17:29.677Z,9.37
2017-05-12T00:19:58.140Z,9.55
2017-05-12T00:22:25.887Z,10.75
2017-05-12T00:24:53.620Z,10.45
2017-05-12T00:27:21.341Z,11.13
2017-05-12T00:29:50.017Z,10.43
2017-05-12T00:32:18.492Z,10.12
2017-05-12T00:34:46.976Z,8.57
2017-05-12T00:37:15.052Z,8.13
2017-05-12T00:39:43.520Z,8.85
2017-05-12T00:42:11.247Z,10.23
2017-05-12T00:44:39.368Z,7.95
2017-05-12T00:47:07.833Z,11.03
2017-05-12T00:49:35.555Z,9.58
2017-05-12T00:52:05.528Z,10.22
2017-05-12T00:54:33.989Z,10.42
2017-05-12T00:57:01.720Z,10.85
2017-05-12T00:59:29.952Z,10.48
2017-05-12T01:01:58.427Z,12.38
2017-05-12T01:04:26.151Z,10.20
2017-05-12T01:06:54.277Z,9.52
2017-05-12T01:09:22.743Z,11.72
2017-05-12T01:11:51.212Z,10.50
2017-05-12T01:14:19.181Z,9.00
2017-05-12T01:16:47.700Z,9.85
2017-05-12T01:19:15.417Z,10.50
2017-05-12T01:21:43.168Z,10.95
2017-05-12T01:24:10.909Z,10.22
2017-05-12T01:26:38.635Z,10.88
2017-05-12T01:29:07.115Z,10.55
2017-05-12T01:31:35.576Z,12.97
2017-05-12T01:34:03.368Z,11.87
2017-05-12T01:36:31.135Z,11.95
2017-05-12T01:38:58.867Z,11.33
2017-05-12T01:41:26.579Z,10.37
2017-05-12T01:43:55.111Z,11.45
2017-05-12T01:46:22.827Z,13.00
2017-05-12T01:48:50.555Z,11.97
2017-05-12T01:51:19.055Z,12.30
2017-05-12T01:53:46.796Z,12.05
2017-05-12T01:56:15.261Z,11.78
2017-05-12T01:58:43.002Z,13.50
2017-05-12T02:01:10.728Z,12.87
2017-05-12T02:03:38.464Z,13.33
2017-05-12T02:06:08.900Z,13.58
2017-05-12T02:08:37.467Z,12.13
2017-05-12T02:11:05.188Z,13.90
2017-05-12T02:13:35.457Z,13.42
2017-05-12T02:16:03.915Z,13.87
2017-05-12T02:18:32.044Z,13.70
2017-05-12T02:20:59.820Z,15.18
2017-05-12T02:23:27.540Z,14.00
2017-05-12T02:25:56.020Z,13.87
2017-05-12T02:28:24.721Z,14.08
2017-05-12T02:30:53.181Z,13.62
2017-05-12T02:33:21.655Z,14.40
2017-05-12T02:35:49.404Z,14.88
2017-05-12T02:38:17.140Z,14.65
2017-05-12T02:40:44.859Z,14.38
2017-05-12T02:43:13.628Z,13.93
2017-05-12T02:45:41.354Z,16.18
2017-05-12T02:48:09.078Z,15.22
2017-05-12T02:50:37.568Z,16.28
2017-05-12T02:53:05.313Z,15.13
2017-05-12T02:55:34.676Z,15.07
2017-05-12T02:58:02.443Z,15.00
2017-05-12T03:00:30.188Z,16.38
2017-05-12T03:02:57.908Z,14.85
2017-05-12T03:05:26.885Z,16.17
2017-05-12T03:07:54.614Z,15.47
2017-05-12T03:10:22.344Z,15.85
2017-05-12T03:12:50.114Z,16.00
2017-05-12T03:15:17.839Z,16.80
2017-05-12T03:17:45.566Z,16.95
2017-05-12T03:20:15.104Z,17.78
2017-05-12T03:22:42.835Z,17.53
2017-05-12T03:25:10.551Z,19.38
2017-05-12T03:27:39.216Z,17.32
2017-05-12T03:30:06.947Z,17.88
2017-05-12T03:32:34.664Z,17.80
2017-05-12T03:35:03.156Z,18.13
2017-05-12T03:37:30.924Z,20.05
2017-05-12T03:39:58.656Z,19.87
2017-05-12T03:42:26.700Z,19.17
2017-05-12T03:44:54.431Z,19.30
2017-05-12T03:47:22.162Z,20.27
2017-05-12T03:49:52.371Z,19.80
2017-05-12T03:52:20.840Z,21.90
2017-05-12T03:54:48.565Z,21.47
2017-05-12T03:57:16.483Z,19.98
2017-05-12T03:59:44.945Z,18.32
2017-05-12T04:02:12.673Z,20.08
2017-05-12T04:04:40.436Z,21.50
2017-05-12T04:07:08.167Z,21.35
2017-05-12T04:09:36.640Z,19.32
2017-05-12T04:12:05.142Z,21.10
2017-05-12T04:14:32.871Z,21.95
2017-05-12T04:17:00.607Z,20.75
2017-05-12T04:19:28.484Z,20.93
2017-05-12T04:21:56.212Z,21.35
2017-05-12T04:24:23.942Z,21.72
2017-05-12T04:26:52.824Z,22.60
2017-05-12T04:29:21.293Z,21.10
2017-05-12T04:31:49.038Z,22.68
2017-05-12T04:34:16.987Z,22.30
2017-05-12T04:36:44.707Z,21.97
2017-05-12T04:39:13.189Z,21.23
2017-05-12T04:41:42.351Z,22.20
2017-05-12T04:44:10.080Z,24.27
2017-05-12T04:46:37.815Z,24.98
2017-05-12T04:49:06.417Z,23.18
2017-05-12T04:51:34.167Z,22.22
2017-05-12T04:54:02.633Z,21.60
2017-05-12T04:56:31.720Z,23.50
2017-05-12T04:58:59.441Z,22.72
2017-05-12T05:01:27.171Z,22.02
2017-05-12T05:03:56.327Z,22.67
2017-05-12T05:06:24.072Z,22.57
2017-05-12T05:08:51.795Z,21.12
2017-05-12T05:11:20.664Z,23.38
2017-05-12T05:13:49.129Z,22.00
2017-05-12T05:16:16.851Z,21.58
2017-05-12T05:18:44.904Z,22.47
2017-05-12T05:21:12.636Z,21.88
2017-05-12T05:23:41.299Z,23.92
2017-05-12T05:26:09.332Z,21.52
2017-05-12T05:28:37.059Z,21.68
2017-05-12T05:31:05.523Z,22.65
2017-05-12T05:33:33.279Z,22.53
2017-05-12T05:36:01.012Z,22.65
2017-05-12T05:38:28.766Z,23.68
2017-05-12T05:40:56.896Z,22.32
2017-05-12T05:43:24.635Z,23.60
2017-05-12T05:45:52.368Z,24.10
2017-05-12T05:48:20.133Z,23.97
2017-05-12T05:50:47.863Z,24.57
2017-05-12T05:53:16.361Z,24.72
2017-05-12T05:55:44.112Z,23.52
2017-05-12T05:58:12.595Z,24.40
2017-05-12T06:00:40.333Z,24.27
2017-05-12T06:03:08.205Z,23.12
2017-05-12T06:05:36.688Z,24.08
2017-05-12T06:08:05.171Z,23.02
2017-05-12T06:10:33.757Z,23.95
2017-05-12T06:13:02.230Z,21.83
2017-05-12T06:15:29.963Z,24.72
2017-05-12T06:17:58.988Z,25.55
2017-05-12T06:20:26.730Z,23.68
2017-05-12T06:22:54.465Z,25.05
2017-05-12T06:25:22.897Z,25.20
2017-05-12T06:27:51.372Z,24.47
2017-05-12T06:30:19.106Z,23.60
2017-05-12T06:32:46.878Z,21.18
2017-05-12T06:35:14.618Z,24.18
2017-05-12T06:37:42.357Z,24.38
2017-05-12T06:40:10.127Z,24.93
2017-05-12T06:42:37.857Z,25.30
2017-05-12T06:45:05.595Z,23.42
2017-05-12T06:47:33.359Z,24.48
2017-05-12T06:50:01.083Z,23.10
2017-05-12T06:52:28.823Z,22.00
2017-05-12T06:54:57.328Z,24.64
2017-05-12T06:57:25.062Z,24.00
2017-05-12T06:59:53.547Z,25.34
2017-05-12T07:02:23.041Z,24.96
2017-05-12T07:04:50.780Z,23.54
2017-05-12T07:07:18.516Z,24.06
2017-05-12T07:09:46.737Z,25.60
2017-05-12T07:12:14.475Z,23.33
2017-05-12T07:14:42.208Z,24.10
2017-05-12T07:17:09.959Z,24.64
2017-05-12T07:19:37.679Z,24.14
2017-05-12T07:22:05.433Z,23.42
2017-05-12T07:24:33.424Z,25.35
2017-05-12T07:27:02.818Z,23.14
2017-05-12T07:29:30.544Z,24.68
2017-05-12T07:31:59.635Z,23.46
2017-05-12T07:34:27.365Z,22.30
2017-05-12T07:36:55.874Z,23.20
2017-05-12T07:39:24.006Z,24.74
2017-05-12T07:41:52.488Z,23.62
2017-05-12T07:44:20.957Z,22.98
2017-05-12T07:46:49.391Z,21.72
2017-05-12T07:49:17.115Z,22.74
2017-05-12T07:51:45.597Z,22.10
2017-05-12T07:54:14.479Z,23.12
2017-05-12T07:56:42.215Z,22.28
2017-05-12T07:59:09.948Z,22.26
2017-05-12T08:01:37.971Z,22.54
2017-05-12T08:04:05.700Z,22.76
2017-05-12T08:06:33.434Z,22.40
2017-05-12T08:09:01.196Z,22.28
2017-05-12T08:11:28.934Z,22.20
2017-05-12T08:13:57.427Z,22.38
2017-05-12T08:16:25.575Z,20.84
2017-05-12T08:18:53.308Z,22.50
2017-05-12T08:21:21.041Z,22.72
2017-05-12T08:23:49.175Z,20.92
2017-05-12T08:26:16.904Z,20.42
2017-05-12T08:28:44.901Z,22.92
2017-05-12T08:31:13.079Z,22.62
2017-05-12T08:33:40.808Z,21.20
2017-05-12T08:36:08.536Z,23.94
2017-05-12T08:38:36.293Z,23.16
2017-05-12T08:41:04.764Z,22.22
2017-05-12T08:43:33.251Z,21.72
2017-05-12T08:46:01.916Z,22.88
2017-05-12T08:48:29.636Z,22.20
2017-05-12T08:50:57.373Z,21.36
2017-05-12T08:53:25.733Z,21.98
2017-05-12T08:55:54.216Z,20.78
2017-05-12T08:58:22.683Z,20.46
2017-05-12T09:00:50.439Z,22.48
2017-05-12T09:03:18.166Z,20.38
2017-05-12T09:05:45.898Z,23.06
2017-05-12T09:08:13.869Z,23.80
2017-05-12T09:10:41.608Z,20.86
2017-05-12T09:13:10.088Z,22.28
2017-05-12T09:15:38.268Z,20.92
2017-05-12T09:18:06.820Z,21.80
2017-05-12T09:20:34.548Z,21.74
2017-05-12T09:23:02.476Z,22.20
2017-05-12T09:25:30.202Z,22.06
2017-05-12T09:27:57.926Z,22.52
2017-05-12T09:30:25.969Z,22.26
2017-05-12T09:32:53.688Z,22.40
2017-05-12T09:35:21.421Z,19.08
2017-05-12T09:37:49.361Z,21.92
2017-05-12T09:40:17.106Z,23.26
2017-05-12T09:42:44.835Z,20.40
2017-05-12T09:45:12.594Z,22.10
2017-05-12T09:47:40.331Z,24.20
2017-05-12T09:50:08.793Z,23.80
2017-05-12T09:52:38.416Z,21.58
2017-05-12T09:55:06.880Z,21.90
2017-05-12T09:57:34.603Z,20.08
2017-05-12T10:00:02.719Z,21.72
2017-05-12T10:02:30.448Z,21.84
2017-05-12T10:04:58.197Z,21.58
2017-05-12T10:07:27.482Z,21.84
2017-05-12T10:09:55.208Z,22.36
2017-05-12T10:12:22.933Z,20.56
2017-05-12T10:14:50.704Z,21.06
2017-05-12T10:17:18.438Z,21.14
2017-05-12T10:19:46.164Z,21.70
2017-05-12T10:22:13.940Z,19.94
2017-05-12T10:24:42.408Z,21.30
2017-05-12T10:27:10.128Z,22.02
2017-05-12T10:29:37.909Z,25.72
2017-05-12T10:32:06.522Z,23.28
2017-05-12T10:34:34.253Z,23.28
2017-05-12T10:37:01.999Z,23.70
2017-05-12T10:39:29.726Z,25.52
2017-05-12T10:41:57.492Z,27.26
2017-05-12T10:44:25.987Z,25.48
2017-05-12T10:46:53.730Z,26.72
2017-05-12T10:49:22.200Z,26.44
2017-05-12T10:51:50.242Z,27.52
2017-05-12T10:54:17.972Z,28.96
2017-05-12T10:56:45.700Z,28.58
2017-05-12T10:59:15.611Z,27.66
2017-05-12T11:01:44.084Z,28.60
2017-05-12T11:04:11.813Z,28.26
2017-05-12T11:06:39.856Z,28.96
2017-05-12T11:09:07.592Z,25.38
2017-05-12T11:11:36.079Z,26.06
2017-05-12T11:14:04.582Z,28.62
2017-05-12T11:16:32.308Z,27.12
2017-05-12T11:19:00.055Z,28.28
2017-05-12T11:21:28.090Z,28.22
2017-05-12T11:23:55.823Z,27.12
2017-05-12T11:26:24.296Z,25.72
2017-05-12T11:28:53.076Z,27.04
2017-05-12T11:31:20.803Z,28.66
2017-05-12T11:33:49.100Z,28.16
2017-05-12T11:36:18.007Z,26.72
2017-05-12T11:38:46.503Z,27.80
2017-05-12T11:41:14.228Z,25.50
2017-05-12T11:43:42.315Z,25.48
2017-05-12T11:46:10.057Z,24.20
2017-05-12T11:48:37.791Z,26.48
2017-05-12T11:51:05.911Z,25.28
2017-05-12T11:53:33.640Z,25.94
2017-05-12T11:56:01.380Z,25.90
2017-05-12T11:58:29.515Z,24.82
2017-05-12T12:00:57.240Z,27.76
2017-05-12T12:03:24.967Z,25.40
2017-05-12T12:05:53.116Z,26.28
2017-05-12T12:08:20.880Z,26.42
2017-05-12T12:10:48.609Z,27.06
2017-05-12T12:13:16.816Z,26.04
2017-05-12T12:15:44.555Z,25.60
2017-05-12T12:18:12.290Z,25.72
2017-05-12T12:20:40.221Z,24.28
2017-05-12T12:23:08.693Z,25.42
2017-05-12T12:25:37.166Z,26.14
2017-05-12T12:28:05.978Z,24.56
2017-05-12T12:30:33.707Z,23.24
2017-05-12T12:33:01.440Z,21.94
2017-05-12T12:35:29.169Z,22.68
2017-05-12T12:37:56.904Z,22.86
2017-05-12T12:40:24.885Z,23.96
2017-05-12T12:42:52.611Z,22.46
2017-05-12T12:45:20.336Z,19.78
2017-05-12T12:47:48.072Z,21.26
2017-05-12T12:50:16.549Z,21.90
2017-05-12T12:52:44.280Z,20.60
2017-05-12T12:55:12.017Z,22.62
2017-05-12T12:57:40.153Z,21.50
2017-05-12T13:00:07.907Z,18.80
2017-05-12T13:02:35.631Z,19.92
2017-05-12T13:05:03.724Z,18.26
2017-05-12T13:07:31.447Z,18.54
2017-05-12T13:09:59.171Z,16.66
2017-05-12T13:12:26.948Z,18.80
2017-05-12T13:14:55.420Z,17.80
2017-05-12T13:17:23.393Z,15.72
2017-05-12T13:19:51.852Z,15.96
2017-05-12T13:22:19.577Z,16.40
2017-05-12T13:24:48.967Z,15.02
2017-05-12T13:27:16.704Z,15.70
2017-05-12T13:29:44.425Z,14.30
2017-05-12T13:32:12.940Z,14.96
2017-05-12T13:34:40.680Z,14.66
2017-05-12T13:37:09.192Z,15.04
2017-05-12T13:39:37.335Z,13.62
2017-05-12T13:42:05.064Z,14.32
2017-05-12T13:44:32.792Z,14.00
2017-05-12T13:47:01.810Z,14.04
2017-05-12T13:49:29.540Z,13.74
2017-05-12T13:51:57.268Z,13.52
2017-05-12T13:54:25.267Z,15.04
2017-05-12T13:56:52.997Z,13.78
2017-05-12T13:59:20.721Z,13.18
2017-05-12T14:01:49.224Z,13.06
2017-05-12T14:04:16.956Z,13.66
2017-05-12T14:06:45.439Z,13.14
2017-05-12T14:09:13.921Z,12.36
2017-05-12T14:11:42.411Z,12.44
2017-05-12T14:14:10.143Z,12.78
2017-05-12T14:16:38.224Z,13.02
2017-05-12T14:19:05.951Z,12.52
2017-05-12T14:21:33.669Z,12.78
2017-05-12T14:24:01.436Z,12.50
2017-05-12T14:26:29.164Z,13.20
2017-05-12T14:28:56.884Z,14.20
2017-05-12T14:31:24.800Z,13.60
2017-05-12T14:33:52.527Z,12.14
2017-05-12T14:36:20.244Z,11.08
2017-05-12T14:38:49.016Z,11.82
2017-05-12T14:41:16.753Z,11.94
2017-05-12T14:43:44.479Z,12.72
2017-05-12T14:46:12.716Z,12.38
2017-05-12T14:48:40.440Z,12.98
2017-05-12T14:51:08.163Z,12.74
2017-05-12T14:53:37.052Z,11.62
2017-05-12T14:56:05.522Z,11.66
2017-05-12T14:58:33.998Z,12.08
2017-05-12T15:01:02.033Z,11.28
2017-05-12T15:03:29.764Z,11.08
2017-05-12T15:05:57.489Z,11.08
2017-05-12T15:08:25.332Z,11.30
2017-05-12T15:10:53.071Z,9.76
2017-05-12T15:13:20.800Z,12.58
2017-05-12T15:15:51.944Z,12.44
2017-05-12T15:18:19.685Z,11.32
2017-05-12T15:20:47.427Z,11.68
2017-05-12T15:23:16.133Z,11.92
2017-05-12T15:25:43.860Z,11.56
2017-05-12T15:28:11.587Z,11.10
2017-05-12T15:30:39.732Z,11.08
2017-05-12T15:33:07.460Z,11.06
2017-05-12T15:35:35.184Z,10.48
2017-05-12T15:38:03.147Z,9.70
2017-05-12T15:40:31.699Z,9.88
2017-05-12T15:42:59.421Z,11.00
2017-05-12T15:45:27.181Z,9.52
2017-05-12T15:47:54.934Z,11.78
2017-05-12T15:50:23.690Z,9.20
2017-05-12T15:52:52.451Z,10.58
2017-05-12T15:55:20.175Z,10.00
2017-05-12T15:57:47.902Z,10.82
2017-05-12T16:00:16.379Z,11.18
2017-05-12T16:02:44.108Z,10.80
2017-05-12T16:05:11.833Z,10.66
2017-05-12T16:07:39.775Z,9.80
2017-05-12T16:10:07.501Z,10.34
2017-05-12T16:12:35.225Z,9.28
2017-05-12T16:15:03.877Z,10.12
2017-05-12T16:17:31.612Z,10.34
2017-05-12T16:19:59.355Z,9.18
2017-05-12T16:22:28.435Z,9.96
2017-05-12T16:24:56.624Z,10.34
2017-05-12T16:27:24.358Z,10.58
2017-05-12T16:29:52.854Z,10.96
2017-05-12T16:32:20.588Z,10.30
2017-05-12T16:34:48.338Z,9.54
2017-05-12T16:37:16.339Z,10.56
2017-05-12T16:39:46.667Z,11.06
2017-05-12T16:42:14.573Z,11.90
2017-05-12T16:44:42.321Z,11.28
2017-05-12T16:47:10.069Z,10.22
2017-05-12T16:49:37.802Z,11.12
2017-05-12T16:52:06.891Z,12.00
2017-05-12T16:54:34.624Z,11.16
2017-05-12T16:57:02.446Z,10.72
2017-05-12T16:59:30.247Z,11.08
2017-05-12T17:01:58.002Z,10.86
2017-05-12T17:04:25.719Z,11.24
2017-05-12T17:06:53.480Z,11.98
2017-05-12T17:09:21.254Z,10.60
2017-05-12T17:11:48.992Z,11.68
2017-05-12T17:14:17.083Z,10.54
2017-05-12T17:16:45.556Z,10.32
2017-05-12T17:19:13.300Z,12.46
2017-05-12T17:21:41.468Z,13.02
2017-05-12T17:24:10.385Z,11.42
2017-05-12T17:26:38.120Z,19.16
2017-05-12T17:29:05.853Z,11.06
2017-05-12T17:31:33.580Z,11.96
2017-05-12T17:34:02.060Z,11.02
2017-05-12T17:36:30.536Z,10.96
2017-05-12T17:39:01.064Z,11.30
2017-05-12T17:41:28.806Z,11.14
2017-05-12T17:43:57.000Z,11.04
2017-05-12T17:46:24.740Z,10.06
2017-05-12T17:48:52.476Z,11.22
2017-05-12T17:51:20.384Z,10.50
2017-05-12T17:53:48.116Z,10.50
2017-05-12T17:56:15.847Z,11.02
2017-05-12T17:58:43.584Z,10.34
2017-05-12T18:01:11.331Z,9.80
2017-05-12T18:03:39.416Z,11.00
2017-05-12T18:06:07.160Z,11.18
2017-05-12T18:08:34.892Z,10.88
2017-05-12T18:11:02.624Z,12.50
2017-05-12T18:13:31.114Z,11.06
2017-05-12T18:15:58.853Z,11.38
2017-05-12T18:18:26.616Z,12.46
2017-05-12T18:20:54.380Z,11.18
2017-05-12T18:23:22.227Z,10.20
2017-05-12T18:25:50.012Z,10.42
2017-05-12T18:28:17.732Z,10.72
2017-05-12T18:30:45.468Z,10.92
2017-05-12T18:33:13.224Z,11.52
2017-05-12T18:35:40.955Z,11.62
2017-05-12T18:38:08.693Z,9.80
2017-05-12T18:40:36.432Z,11.14
2017-05-12T18:43:04.165Z,10.80
2017-05-12T18:45:32.725Z,10.54
2017-05-12T18:48:00.456Z,10.68
2017-05-12T18:50:28.205Z,10.70
2017-05-12T18:52:55.989Z,10.22
2017-05-12T18:55:24.000Z,10.58
2017-05-12T18:57:52.474Z,10.48
2017-05-12T19:00:20.201Z,11.06
2017-05-12T19:02:47.936Z,10.60
2017-05-12T19:05:15.668Z,10.30
2017-05-12T19:07:44.457Z,10.72
2017-05-12T19:10:12.188Z,10.92
2017-05-12T19:12:39.917Z,9.86
2017-05-12T19:15:07.678Z,8.48
2017-05-12T19:17:35.424Z,9.34
2017-05-12T19:20:03.593Z,9.20
2017-05-12T19:22:32.138Z,9.62
2017-05-12T19:24:59.870Z,9.12
2017-05-12T19:27:27.637Z,8.46
2017-05-12T19:29:55.401Z,9.34
2017-05-12T19:32:23.127Z,8.66
2017-05-12T19:34:51.614Z,8.98
2017-05-12T19:37:20.107Z,7.28
2017-05-12T19:39:47.832Z,9.62
2017-05-12T19:42:15.579Z,8.60
2017-05-12T19:44:43.336Z,9.18
2017-05-12T19:47:11.081Z,8.84
2017-05-12T19:49:38.813Z,9.36
2017-05-12T19:52:07.172Z,8.80
2017-05-12T19:54:34.911Z,8.46
2017-05-12T19:57:02.641Z,8.04
2017-05-12T19:59:30.568Z,8.42
2017-05-12T20:01:59.040Z,8.10
2017-05-12T20:04:26.769Z,8.88
2017-05-12T20:06:55.822Z,7.60
2017-05-12T20:09:23.561Z,8.48
2017-05-12T20:11:51.294Z,8.50
2017-05-12T20:14:19.817Z,8.14
2017-05-12T20:16:48.297Z,8.32
2017-05-12T20:19:17.260Z,7.36
2017-05-12T20:21:45.847Z,8.62
2017-05-12T20:24:13.586Z,7.54
2017-05-12T20:26:41.318Z,8.36
2017-05-12T20:29:09.060Z,7.32
2017-05-12T20:31:36.824Z,7.16
2017-05-12T20:34:04.598Z,8.13
2017-05-12T20:36:32.338Z,7.48
2017-05-12T20:39:00.068Z,8.16
2017-05-12T20:41:27.856Z,9.00
2017-05-12T20:43:55.594Z,7.82
2017-05-12T20:46:23.320Z,7.04
2017-05-12T20:48:53.016Z,9.30
2017-05-12T20:51:21.497Z,9.26
2017-05-12T20:53:50.029Z,8.76
2017-05-12T20:56:17.775Z,7.84
2017-05-12T20:58:45.502Z,8.98
2017-05-12T21:01:13.988Z,8.44
2017-05-12T21:03:42.465Z,8.60
2017-05-12T21:06:11.020Z,9.12
2017-05-12T21:08:38.752Z,8.60
2017-05-12T21:11:06.515Z,7.88
2017-05-12T21:13:34.260Z,8.34
2017-05-12T21:16:02.728Z,8.82
2017-05-12T21:18:31.248Z,8.98
2017-05-12T21:20:58.971Z,8.20
2017-05-12T21:23:27.464Z,7.50
2017-05-12T21:25:55.988Z,7.46
2017-05-12T21:28:23.761Z,8.10
2017-05-12T21:30:52.257Z,7.10
2017-05-12T21:33:20.029Z,8.20
2017-05-12T21:35:48.100Z,8.56
2017-05-12T21:38:15.830Z,7.36
2017-05-12T21:40:43.573Z,7.18
2017-05-12T21:43:11.305Z,7.98
2017-05-12T21:45:39.779Z,6.76
2017-05-12T21:48:08.265Z,7.34
2017-05-12T21:50:36.833Z,8.68
2017-05-12T21:53:05.521Z,7.14
2017-05-12T21:55:33.355Z,7.38
2017-05-12T21:58:01.084Z,8.58
2017-05-12T22:00:28.839Z,8.56
2017-05-12T22:02:56.582Z,7.98
2017-05-12T22:05:25.092Z,7.88
2017-05-12T22:07:52.851Z,7.38
2017-05-12T22:10:20.624Z,8.16
2017-05-12T22:12:49.076Z,8.56
2017-05-12T22:15:17.544Z,8.06
2017-05-12T22:17:46.532Z,9.18
2017-05-12T22:20:14.378Z,7.98
2017-05-12T22:22:42.142Z,7.76
2017-05-12T22:25:09.873Z,8.48
2017-05-12T22:27:37.616Z,7.92
2017-05-12T22:30:05.342Z,8.18
2017-05-12T22:32:33.084Z,7.44
2017-05-12T22:35:01.083Z,8.04
2017-05-12T22:37:28.830Z,8.72
2017-05-12T22:39:56.555Z,8.40
2017-05-12T22:42:24.281Z,7.98
2017-05-12T22:44:52.745Z,7.90
2017-05-12T22:47:20.475Z,8.42
2017-05-12T22:49:48.216Z,9.80
2017-05-12T22:52:17.166Z,8.66
2017-05-12T22:54:44.899Z,7.72
2017-05-12T22:57:12.630Z,7.90
2017-05-12T22:59:40.378Z,8.78
2017-05-12T23:02:08.142Z,8.43
2017-05-12T23:04:36.615Z,7.43
2017-05-12T23:07:05.100Z,8.23
2017-05-12T23:09:33.635Z,7.95
2017-05-12T23:12:01.364Z,7.22
2017-05-12T23:14:29.112Z,8.54
2017-05-12T23:16:56.832Z,8.28
2017-05-12T23:19:24.568Z,7.80
2017-05-12T23:21:52.641Z,7.52
2017-05-12T23:24:20.368Z,8.64
2017-05-12T23:26:48.835Z,7.32
2017-05-12T23:29:16.713Z,7.38
2017-05-12T23:31:45.180Z,8.24
2017-05-12T23:34:12.912Z,8.40
2017-05-12T23:36:40.688Z,8.20
2017-05-12T23:39:08.416Z,7.75
2017-05-12T23:41:36.148Z,7.90
2017-05-12T23:44:05.023Z,8.02
2017-05-12T23:46:32.751Z,8.35
2017-05-12T23:49:00.479Z,8.16
2017-05-12T23:51:28.237Z,7.86
2017-05-12T23:53:57.083Z,7.72
2017-05-12T23:56:24.819Z,7.40
2017-05-12T23:58:52.732Z,6.90
